Time;durP1;ratioP1;P1;durP2;ratioP2;P2;SDS_P1;SDS_P2;PMS_P1;PMS_P2;Temp;Humidity;BMP_temperature;BMP_pressure;BME280_temperature;BME280_humidity;BME280_pressure;Samples;Min_cycle;Max_cycle;Signal;HPM_P1;HPM_P2
2022/12/07 00:01:38;;;;;;;7.25;1.55;;;4.40;99.90;;;;;;5069544;28;20032;-75
2022/12/07 00:04:05;;;;;;;6.50;1.40;;;4.20;99.90;;;;;;5059882;28;20036;-76
2022/12/07 00:06:33;;;;;;;7.93;1.77;;;5.00;99.90;;;;;;5084088;28;20063;-76
2022/12/07 00:08:59;;;;;;;8.93;1.73;;;;;;;;;;5063804;28;20527;-76
2022/12/07 00:11:25;;;;;;;6.93;1.98;;;4.50;99.90;;;;;;5059428;28;20044;-76
2022/12/07 00:13:53;;;;;;;7.90;1.60;;;4.60;99.90;;;;;;5058500;28;20036;-76
2022/12/07 00:16:21;;;;;;;5.53;1.33;;;4.60;99.90;;;;;;5062257;28;20067;-77
2022/12/07 00:18:47;;;;;;;6.85;1.23;;;4.60;99.90;;;;;;5058848;28;20047;-76
2022/12/07 00:21:21;;;;;;;5.97;1.42;;;4.70;99.90;;;;;;5056059;28;20028;-76
2022/12/07 00:23:48;;;;;;;5.97;1.40;;;4.40;99.90;;;;;;5064291;28;20036;-76
2022/12/07 00:26:22;;;;;;;9.90;1.60;;;;;;;;;;5047756;28;20028;-76
2022/12/07 00:28:49;;;;;;;9.35;1.58;;;;;;;;;;5063608;28;20251;-75
2022/12/07 00:31:15;;;;;;;9.10;1.85;;;4.60;99.90;;;;;;5066155;28;20044;-76
2022/12/07 00:33:41;;;;;;;10.70;2.20;;;4.60;99.90;;;;;;5073322;28;20036;-76
2022/12/07 00:36:09;;;;;;;4.72;1.05;;;;;;;;;;5093621;28;20047;-78
2022/12/07 00:38:36;;;;;;;7.82;1.60;;;4.70;99.90;;;;;;5078528;28;20052;-76
2022/12/07 00:41:16;;;;;;;11.50;1.80;;;4.60;99.90;;;;;;5059875;28;20485;-75
2022/12/07 00:43:44;;;;;;;6.40;1.40;;;4.40;99.90;;;;;;5049692;28;20040;-75
2022/12/07 00:46:10;;;;;;;6.25;1.50;;;4.60;99.90;;;;;;5050822;28;20041;-78
2022/12/07 00:48:37;;;;;;;7.95;2.15;;;4.30;99.90;;;;;;5074840;28;20044;-77
2022/12/07 00:51:03;;;;;;;6.22;1.00;;;4.40;99.90;;;;;;5084914;28;20035;-78
2022/12/07 00:53:29;;;;;;;1.73;0.70;;;4.30;99.90;;;;;;5075377;28;20044;-77
2022/12/07 00:55:57;;;;;;;3.70;1.05;;;4.10;99.90;;;;;;5059666;28;20032;-77
2022/12/07 00:58:24;;;;;;;5.47;0.88;;;4.20;99.90;;;;;;5068174;28;20036;-77
2022/12/07 01:00:50;;;;;;;6.55;1.13;;;;;;;;;;5074989;28;20032;-78
2022/12/07 01:03:17;;;;;;;4.65;0.90;;;4.10;99.90;;;;;;5088610;28;20409;-77
2022/12/07 01:05:50;;;;;;;5.78;0.93;;;;;;;;;;5080704;28;20032;-77
2022/12/07 01:08:16;;;;;;;4.57;1.08;;;3.80;99.90;;;;;;5059134;28;20127;-78
2022/12/07 01:10:42;;;;;;;10.57;2.65;;;;;;;;;;5059557;28;20079;-75
2022/12/07 01:13:07;;;;;;;7.47;1.30;;;3.90;99.90;;;;;;5074299;28;20047;-75
2022/12/07 01:15:33;;;;;;;5.10;1.42;;;4.20;99.90;;;;;;5062373;28;20036;-75
2022/12/07 01:17:59;;;;;;;7.18;1.67;;;4.40;99.90;;;;;;5060946;28;20040;-75
2022/12/07 01:20:24;;;;;;;9.40;1.80;;;4.40;99.90;;;;;;5061811;28;20041;-75
2022/12/07 01:22:50;;;;;;;12.13;1.80;;;;;;;;;;5070773;28;20031;-75
2022/12/07 01:25:16;;;;;;;9.90;1.90;;;4.30;99.90;;;;;;5044863;28;20032;-75
2022/12/07 01:27:42;;;;;;;8.45;2.15;;;4.00;99.90;;;;;;5078173;28;20378;-75
2022/12/07 01:30:08;;;;;;;7.97;1.45;;;;;;;;;;5067924;28;20087;-75
2022/12/07 01:32:34;;;;;;;7.53;1.60;;;3.90;99.90;;;;;;5058113;28;20040;-76
2022/12/07 01:34:59;;;;;;;6.63;1.42;;;4.00;99.90;;;;;;5068436;28;20507;-76
2022/12/07 01:37:26;;;;;;;4.55;1.20;;;;;;;;;;5093651;28;20075;-76
2022/12/07 01:39:52;;;;;;;9.38;2.63;;;3.70;99.90;;;;;;5084739;28;20032;-76
2022/12/07 01:42:18;;;;;;;8.95;1.60;;;4.00;99.90;;;;;;5052470;28;20035;-76
2022/12/07 01:45:03;;;;;;;8.02;1.60;;;;;;;;;;5062778;28;20090;-76
2022/12/07 01:47:29;;;;;;;;;;;3.80;99.90;;;;;;5078853;28;20055;-75
2022/12/07 01:49:55;;;;;;;7.80;1.50;;;4.20;99.90;;;;;;5089261;28;20366;-76
2022/12/07 01:52:23;;;;;;;7.25;1.60;;;;;;;;;;5044456;28;20413;-76
2022/12/07 01:54:53;;;;;;;8.98;1.95;;;4.00;99.90;;;;;;5071010;28;20052;-76
2022/12/07 01:57:20;;;;;;;8.70;1.33;;;4.10;99.90;;;;;;5046393;28;20118;-76
2022/12/07 01:59:48;;;;;;;6.28;1.38;;;;;;;;;;5079367;28;20039;-76
2022/12/07 02:02:18;;;;;;;12.48;2.00;;;;;;;;;;5055941;28;20055;-77
2022/12/07 02:04:45;;;;;;;8.80;1.60;;;;;;;;;;5062835;28;20048;-76
2022/12/07 02:07:11;;;;;;;9.60;2.67;;;4.00;99.90;;;;;;5084698;28;20673;-77
2022/12/07 02:09:37;;;;;;;10.13;2.13;;;4.30;99.90;;;;;;5077866;28;20048;-77
2022/12/07 02:12:03;;;;;;;9.85;1.50;;;;;;;;;;5054609;28;20039;-76
2022/12/07 02:14:29;;;;;;;11.13;1.88;;;3.30;99.90;;;;;;5064421;28;20047;-77
2022/12/07 02:17:11;;;;;;;10.35;1.92;;;3.90;99.90;;;;;;5092206;28;20036;-76
2022/12/07 02:19:48;;;;;;;7.43;1.58;;;4.30;99.90;;;;;;5085499;28;20043;-76
2022/12/07 02:22:23;;;;;;;6.18;1.45;;;;;;;;;;5064809;28;20036;-76
2022/12/07 02:24:54;;;;;;;7.10;1.38;;;4.00;99.90;;;;;;5069058;28;20044;-76
2022/12/07 02:27:43;;;;;;;12.38;1.63;;;4.20;99.90;;;;;;5072386;28;20044;-76
2022/12/07 02:30:19;;;;;;;9.85;1.83;;;;;;;;;;5059702;28;20503;-78
2022/12/07 02:32:48;;;;;;;10.77;1.60;;;;;;;;;;5071501;28;20036;-76
2022/12/07 02:35:21;;;;;;;10.23;2.20;;;3.90;99.90;;;;;;5076348;28;20058;-76
2022/12/07 02:37:50;;;;;;;17.00;1.92;;;;;;;;;;5069064;28;20035;-76
2022/12/07 02:40:23;;;;;;;11.27;1.75;;;;;;;;;;5075121;28;20493;-76
2022/12/07 02:43:03;;;;;;;18.73;3.25;;;4.60;99.90;;;;;;5072263;28;20396;-75
2022/12/07 02:45:31;;;;;;;7.55;1.50;;;4.20;99.90;;;;;;5091505;28;20035;-75
2022/12/07 02:48:00;;;;;;;6.32;1.10;;;3.90;99.90;;;;;;5063394;28;20036;-76
2022/12/07 02:50:26;;;;;;;5.78;1.60;;;4.00;99.90;;;;;;5060365;28;20513;-76
2022/12/07 02:52:51;;;;;;;6.65;1.40;;;3.90;99.90;;;;;;5091603;28;20125;-75
2022/12/07 02:55:22;;;;;;;6.88;1.73;;;3.90;99.90;;;;;;5066250;28;20040;-75
2022/12/07 02:57:59;;;;;;;7.28;1.48;;;;;;;;;;5064541;28;20055;-75
2022/12/07 03:00:25;;;;;;;8.93;1.42;;;3.30;99.90;;;;;;5068685;28;20037;-75
2022/12/07 03:03:07;;;;;;;7.45;1.75;;;3.90;99.90;;;;;;5067622;28;20039;-75
2022/12/07 03:05:42;;;;;;;7.47;1.73;;;;;;;;;;5059222;28;20072;-75
2022/12/07 03:08:20;;;;;;;6.32;1.48;;;3.70;99.90;;;;;;5073724;28;20093;-75
2022/12/07 03:11:06;;;;;;;11.65;1.75;;;3.30;99.90;;;;;;5074188;28;20534;-75
2022/12/07 03:13:59;;;;;;;10.13;1.45;;;4.00;99.90;;;;;;5057377;28;20044;-75
2022/12/07 03:16:45;;;;;;;10.43;1.80;;;3.60;99.90;;;;;;5064470;28;20494;-74
2022/12/07 03:19:14;;;;;;;8.48;1.60;;;3.30;99.90;;;;;;5093306;28;20063;-74
2022/12/07 03:21:43;;;;;;;9.13;1.77;;;;;;;;;;5075039;28;20067;-75
2022/12/07 03:24:21;;;;;;;12.85;3.33;;;3.40;99.90;;;;;;5081550;28;20241;-74
2022/12/07 03:26:49;;;;;;;4.32;1.40;;;;;;;;;;5043820;28;20546;-74
2022/12/07 03:29:26;;;;;;;9.35;1.40;;;;;;;;;;5072439;28;20040;-74
2022/12/07 03:32:06;;;;;;;6.28;1.08;;;3.50;99.90;;;;;;5084718;28;20036;-74
2022/12/07 03:34:40;;;;;;;8.95;1.50;;;;;;;;;;5090546;28;20101;-74
2022/12/07 03:37:09;;;;;;;6.80;1.27;;;;;;;;;;5078539;28;20119;-74
2022/12/07 03:39:41;;;;;;;11.13;2.85;;;4.10;99.90;;;;;;5063437;28;20405;-74
2022/12/07 03:42:08;;;;;;;9.45;1.38;;;;;;;;;;5078734;28;20115;-73
2022/12/07 03:44:35;;;;;;;11.10;1.90;;;;;;;;;;5065668;28;20359;-74
2022/12/07 03:47:07;;;;;;;12.50;2.00;;;;;;;;;;5077334;28;20082;-73
2022/12/07 03:49:41;;;;;;;7.68;1.65;;;4.00;99.90;;;;;;5082463;28;20120;-73
2022/12/07 03:52:17;;;;;;;8.50;1.60;;;3.90;99.90;;;;;;5066799;28;20063;-74
2022/12/07 03:55:03;;;;;;;8.05;1.55;;;4.10;99.90;;;;;;5092108;28;20097;-73
2022/12/07 03:57:30;;;;;;;12.35;2.63;;;;;;;;;;5045307;28;20115;-73
2022/12/07 03:59:56;;;;;;;8.90;1.88;;;4.00;99.90;;;;;;5075287;28;20051;-73
2022/12/07 04:02:23;;;;;;;7.00;1.40;;;3.70;99.90;;;;;;5051979;28;20520;-73
2022/12/07 04:04:49;;;;;;;11.35;3.05;;;4.00;99.90;;;;;;5064161;28;20072;-73
2022/12/07 04:07:15;;;;;;;8.27;1.40;;;3.90;99.90;;;;;;5058503;28;20067;-73
2022/12/07 04:09:40;;;;;;;11.82;1.95;;;3.80;99.90;;;;;;5062124;28;20052;-73
2022/12/07 04:12:07;;;;;;;13.10;2.47;;;;;;;;;;5069283;28;20067;-73
2022/12/07 04:14:32;;;;;;;10.25;1.50;;;3.40;99.90;;;;;;5057314;28;20040;-73
2022/12/07 04:16:59;;;;;;;8.52;1.92;;;;;;;;;;5091555;28;20424;-73
2022/12/07 04:19:29;;;;;;;5.20;1.42;;;;;;;;;;5074673;28;20044;-73
2022/12/07 04:21:56;;;;;;;5.43;1.58;;;3.60;99.90;;;;;;5063122;28;20063;-74
2022/12/07 04:24:22;;;;;;;4.35;1.00;;;3.30;99.90;;;;;;5063772;28;20040;-73
2022/12/07 04:26:48;;;;;;;7.70;1.27;;;;;;;;;;5063770;28;20508;-73
2022/12/07 04:29:14;;;;;;;5.05;1.52;;;3.60;99.90;;;;;;5087613;28;20402;-75
2022/12/07 04:31:40;;;;;;;7.72;1.50;;;;;;;;;;5057693;28;20052;-73
2022/12/07 04:34:07;;;;;;;13.48;2.47;;;;;;;;;;5093356;28;20092;-73
2022/12/07 04:36:34;;;;;;;4.60;1.40;;;3.70;99.90;;;;;;5065804;28;20509;-72
2022/12/07 04:39:00;;;;;;;7.18;1.80;;;;;;;;;;5090138;28;20103;-72
2022/12/07 04:41:28;;;;;;;12.88;3.17;;;3.40;99.90;;;;;;5070829;28;20032;-73
2022/12/07 04:43:55;;;;;;;10.07;2.22;;;3.80;99.90;;;;;;5069631;28;20040;-75
2022/12/07 04:46:21;;;;;;;7.13;1.35;;;3.70;99.90;;;;;;5073701;28;20043;-75
2022/12/07 04:48:47;;;;;;;9.52;2.75;;;;;;;;;;5089380;28;20040;-75
2022/12/07 04:51:13;;;;;;;6.65;1.60;;;;;;;;;;5049214;28;20112;-75
2022/12/07 04:53:39;;;;;;;6.10;1.17;;;3.80;99.90;;;;;;5075939;28;20043;-75
2022/12/07 04:56:04;;;;;;;6.10;1.63;;;3.80;99.90;;;;;;5089606;28;20040;-75
2022/12/07 04:58:30;;;;;;;6.10;1.30;;;;;;;;;;5090890;28;20047;-74
2022/12/07 05:00:56;;;;;;;10.65;2.30;;;4.40;99.90;;;;;;5086370;28;20035;-74
2022/12/07 05:03:22;;;;;;;9.05;1.90;;;4.00;99.90;;;;;;5068001;28;20508;-74
2022/12/07 05:05:48;;;;;;;12.88;2.70;;;;;;;;;;5062219;28;20114;-75
2022/12/07 05:08:13;;;;;;;8.90;1.73;;;3.70;99.90;;;;;;5058720;28;20178;-74
2022/12/07 05:10:39;;;;;;;9.65;1.90;;;4.00;99.90;;;;;;5063561;28;20130;-74
2022/12/07 05:13:05;;;;;;;8.95;2.53;;;4.10;99.90;;;;;;5061764;28;20044;-74
2022/12/07 05:15:30;;;;;;;6.57;1.30;;;4.30;99.90;;;;;;5071508;28;20048;-75
2022/12/07 05:17:56;;;;;;;7.35;1.55;;;4.50;99.90;;;;;;5061012;28;20051;-75
2022/12/07 05:20:22;;;;;;;9.38;2.92;;;4.30;99.90;;;;;;5064971;28;20047;-74
2022/12/07 05:22:47;;;;;;;6.55;1.58;;;4.30;99.90;;;;;;5068685;28;20037;-75
2022/12/07 05:25:13;;;;;;;7.20;1.70;;;4.30;99.90;;;;;;5054423;28;20040;-75
2022/12/07 05:27:39;;;;;;;9.40;2.10;;;4.20;99.90;;;;;;5060107;28;20040;-75
2022/12/07 05:30:05;;;;;;;8.32;1.73;;;4.90;99.90;;;;;;5061291;28;20099;-75
2022/12/07 05:32:31;;;;;;;10.52;2.30;;;4.70;99.90;;;;;;5077005;28;20032;-75
2022/12/07 05:34:56;;;;;;;12.55;2.58;;;4.40;99.90;;;;;;5061005;28;20418;-75
2022/12/07 05:37:22;;;;;;;8.57;1.88;;;;;;;;;;5067431;28;20450;-75
2022/12/07 05:39:50;;;;;;;8.57;1.70;;;3.90;99.90;;;;;;5069198;28;20052;-75
2022/12/07 05:42:17;;;;;;;8.82;1.70;;;3.80;99.90;;;;;;5087994;28;20056;-75
2022/12/07 05:44:44;;;;;;;10.25;2.05;;;3.50;99.90;;;;;;5056428;28;20043;-75
2022/12/07 05:47:12;;;;;;;9.27;1.77;;;4.30;99.90;;;;;;5083236;28;20111;-75
2022/12/07 05:49:37;;;;;;;8.73;1.48;;;3.70;99.90;;;;;;5090709;28;20535;-75
2022/12/07 05:52:04;;;;;;;9.20;1.45;;;;;;;;;;5066356;28;20029;-73
2022/12/07 05:54:30;;;;;;;7.25;1.52;;;;;;;;;;5061485;28;20044;-76
2022/12/07 05:56:57;;;;;;;9.10;1.60;;;3.80;99.90;;;;;;5058518;28;20539;-74
2022/12/07 05:59:23;;;;;;;11.23;2.13;;;;;;;;;;5062181;28;20513;-74
2022/12/07 06:02:06;;;;;;;9.70;2.10;;;3.40;99.90;;;;;;5052854;28;20079;-74
2022/12/07 06:04:35;;;;;;;10.43;1.80;;;4.10;99.90;;;;;;5058790;28;20094;-73
2022/12/07 06:07:00;;;;;;;7.32;1.80;;;3.80;99.90;;;;;;5058889;28;20061;-73
2022/12/07 06:09:27;;;;;;;10.48;2.00;;;;;;;;;;5064620;28;20242;-74
2022/12/07 06:14:39;;;;;;;13.13;1.80;;;3.30;99.90;;;;;;5080426;28;20044;-73
2022/12/07 06:17:05;;;;;;;9.60;2.33;;;;;;;;;;5084935;28;20311;-73
2022/12/07 06:19:31;;;;;;;10.27;2.72;;;3.30;99.90;;;;;;5090258;28;20052;-73
2022/12/07 06:21:57;;;;;;;11.13;3.33;;;3.40;99.90;;;;;;5071263;28;20032;-73
2022/12/07 06:24:23;;;;;;;12.70;2.47;;;;;;;;;;5056042;28;20496;-73
2022/12/07 06:26:49;;;;;;;7.13;1.90;;;3.30;99.90;;;;;;5059772;28;20118;-73
2022/12/07 06:29:16;;;;;;;9.60;2.10;;;3.40;99.90;;;;;;5077173;28;20119;-73
2022/12/07 06:31:41;;;;;;;13.10;2.22;;;3.50;99.90;;;;;;5077176;28;20066;-72
2022/12/07 06:34:11;;;;;;;8.20;1.80;;;4.00;99.90;;;;;;5043661;28;20489;-73
2022/12/07 06:36:36;;;;;;;10.35;3.60;;;3.70;99.90;;;;;;5062970;28;20115;-72
2022/12/07 06:39:03;;;;;;;11.18;1.80;;;;;;;;;;5079544;28;20728;-73
2022/12/07 06:41:29;;;;;;;9.45;1.90;;;3.70;99.90;;;;;;5083694;28;20497;-72
2022/12/07 06:43:55;;;;;;;9.85;2.75;;;;;;;;;;5085176;28;20039;-72
2022/12/07 06:46:20;;;;;;;10.85;2.80;;;4.00;99.90;;;;;;5073595;28;20047;-72
2022/12/07 06:48:46;;;;;;;11.43;2.03;;;3.90;99.90;;;;;;5071680;28;20043;-73
2022/12/07 06:51:12;;;;;;;11.98;2.05;;;3.90;99.90;;;;;;5064567;28;20055;-73
2022/12/07 06:53:38;;;;;;;10.20;2.92;;;4.30;99.90;;;;;;5070791;28;20047;-73
2022/12/07 06:56:04;;;;;;;8.10;1.50;;;;;;;;;;5072481;28;20618;-74
2022/12/07 06:58:31;;;;;;;9.45;1.42;;;3.90;99.90;;;;;;5071303;28;20428;-74
2022/12/07 07:00:56;;;;;;;8.63;2.15;;;3.80;99.90;;;;;;5087753;28;20439;-75
2022/12/07 07:03:22;;;;;;;17.88;1.77;;;;;;;;;;5070821;28;20046;-76
2022/12/07 07:05:48;;;;;;;8.55;1.75;;;3.90;99.90;;;;;;5082887;28;20040;-76
2022/12/07 07:08:14;;;;;;;8.77;1.70;;;3.90;99.90;;;;;;5090601;28;20169;-76
2022/12/07 07:10:41;;;;;;;7.80;1.80;;;;;;;;;;5055197;28;20047;-76
2022/12/07 07:13:07;;;;;;;9.10;1.70;;;;;;;;;;5087289;28;20036;-76
2022/12/07 07:15:34;;;;;;;6.97;1.52;;;;;;;;;;5062608;28;20051;-76
2022/12/07 07:18:00;;;;;;;18.13;2.95;;;;;;;;;;5081948;28;20032;-76
2022/12/07 07:20:26;;;;;;;8.68;2.13;;;3.50;99.90;;;;;;5060333;28;20092;-76
2022/12/07 07:22:54;;;;;;;17.25;2.47;;;;;;;;;;5068165;28;20032;-76
2022/12/07 07:25:20;;;;;;;10.10;1.85;;;;;;;;;;5045713;28;20414;-77
2022/12/07 07:27:46;;;;;;;8.85;1.50;;;3.90;99.90;;;;;;5055932;28;20036;-76
2022/12/07 07:30:11;;;;;;;8.80;1.60;;;3.70;99.90;;;;;;5060275;28;20363;-76
2022/12/07 07:32:38;;;;;;;8.73;2.00;;;;;;;;;;5067146;28;20036;-75
2022/12/07 07:35:04;;;;;;;8.52;1.73;;;4.10;99.90;;;;;;5061588;28;20086;-76
2022/12/07 07:37:30;;;;;;;10.00;1.83;;;4.00;99.90;;;;;;5076803;28;20032;-76
2022/12/07 07:39:56;;;;;;;13.88;2.10;;;3.90;99.90;;;;;;5065513;28;20169;-76
2022/12/07 07:42:21;;;;;;;8.73;2.28;;;3.60;99.90;;;;;;5070103;28;20060;-76
2022/12/07 07:44:47;;;;;;;11.13;2.17;;;;;;;;;;5059913;28;20498;-76
2022/12/07 07:47:13;;;;;;;11.00;2.60;;;3.50;99.90;;;;;;5087895;28;20045;-76
2022/12/07 07:49:39;;;;;;;13.63;1.98;;;3.90;99.90;;;;;;5087841;28;20486;-76
2022/12/07 07:52:08;;;;;;;9.73;2.10;;;;;;;;;;5068032;28;20043;-76
2022/12/07 07:54:33;;;;;;;9.23;2.10;;;3.80;99.90;;;;;;5080099;28;20032;-76
2022/12/07 07:56:59;;;;;;;7.53;2.08;;;3.00;99.90;;;;;;5064326;28;20036;-76
2022/12/07 07:59:25;;;;;;;9.45;2.35;;;3.10;99.90;;;;;;5058562;28;20098;-76
2022/12/07 08:01:51;;;;;;;12.70;2.05;;;;;;;;;;5063891;28;20072;-77
2022/12/07 08:04:17;;;;;;;13.13;2.40;;;;;;;;;;5072613;28;20036;-75
2022/12/07 08:06:43;;;;;;;9.98;2.38;;;3.00;99.90;;;;;;5091626;28;20036;-75
2022/12/07 08:09:09;;;;;;;13.43;2.20;;;3.00;99.90;;;;;;5076170;28;20115;-77
2022/12/07 08:11:36;;;;;;;10.82;2.80;;;3.40;99.90;;;;;;5070227;28;20072;-77
2022/12/07 08:14:02;;;;;;;9.40;2.80;;;;;;;;;;5064635;28;20076;-77
2022/12/07 08:16:28;;;;;;;12.60;1.75;;;;;;;;;;5074162;28;20047;-77
2022/12/07 08:18:54;;;;;;;11.07;2.10;;;;;;;;;;5072781;28;20036;-77
2022/12/07 08:21:19;;;;;;;6.97;2.00;;;4.20;99.90;;;;;;5049617;28;20037;-77
2022/12/07 08:23:45;;;;;;;9.00;1.58;;;4.20;99.90;;;;;;5071472;28;20047;-75
2022/12/07 08:26:14;;;;;;;8.07;1.30;;;3.90;99.90;;;;;;5063611;28;20024;-75
2022/12/07 08:28:40;;;;;;;8.65;1.67;;;3.70;99.90;;;;;;5070300;28;20047;-75
2022/12/07 08:31:08;;;;;;;6.13;1.77;;;;;;;;;;5068303;28;20032;-75
2022/12/07 08:33:34;;;;;;;6.30;1.17;;;4.00;99.90;;;;;;5069781;28;20047;-75
2022/12/07 08:36:01;;;;;;;7.15;1.50;;;;;;;;;;5073512;28;20040;-75
2022/12/07 08:38:27;;;;;;;7.05;1.70;;;4.00;99.90;;;;;;5064991;28;20041;-75
2022/12/07 08:40:56;;;;;;;5.28;1.50;;;;;;;;;;5062979;28;20115;-75
2022/12/07 08:43:22;;;;;;;6.32;1.40;;;4.10;99.90;;;;;;5068365;28;20039;-75
2022/12/07 08:45:51;;;;;;;8.65;1.60;;;;;;;;;;5065397;28;20438;-75
2022/12/07 08:48:21;;;;;;;12.15;1.65;;;4.00;99.90;;;;;;5066866;28;20043;-75
2022/12/07 08:50:48;;;;;;;7.18;1.75;;;4.00;99.90;;;;;;5063730;28;20478;-74
2022/12/07 08:53:13;;;;;;;5.03;1.30;;;4.00;99.90;;;;;;5067502;28;20106;-77
2022/12/07 08:55:39;;;;;;;8.02;1.60;;;4.00;99.90;;;;;;5073538;28;20048;-76
2022/12/07 08:58:05;;;;;;;8.80;2.00;;;3.60;99.90;;;;;;5051939;28;20057;-77
2022/12/07 09:00:31;;;;;;;9.88;2.05;;;3.80;99.90;;;;;;5057301;28;20115;-76
2022/12/07 09:02:56;;;;;;;9.70;1.90;;;4.10;99.90;;;;;;5080663;28;20162;-77
2022/12/07 09:05:23;;;;;;;5.65;1.45;;;;;;;;;;5050402;28;20044;-76
2022/12/07 09:07:51;;;;;;;8.43;1.95;;;;;;;;;;5041497;28;20043;-77
2022/12/07 09:10:16;;;;;;;7.50;1.38;;;3.90;99.90;;;;;;5075867;28;20115;-77
2022/12/07 09:12:42;;;;;;;7.97;1.83;;;3.80;99.90;;;;;;5074020;28;20528;-75
2022/12/07 09:15:08;;;;;;;7.57;1.65;;;3.90;99.90;;;;;;5048708;28;20290;-75
2022/12/07 09:17:35;;;;;;;7.20;2.08;;;;;;;;;;5063915;28;20036;-74
2022/12/07 09:20:02;;;;;;;5.68;1.40;;;4.10;99.90;;;;;;5053500;28;20043;-74
2022/12/07 09:22:32;;;;;;;8.13;1.98;;;;;;;;;;5069719;28;20046;-73
2022/12/07 09:24:58;;;;;;;5.75;1.20;;;4.40;99.90;;;;;;5052510;28;20033;-74
2022/12/07 09:27:24;;;;;;;5.72;1.30;;;4.80;99.90;;;;;;5081246;28;20035;-74
2022/12/07 09:29:50;;;;;;;8.35;1.50;;;5.10;99.90;;;;;;5060200;28;20051;-73
2022/12/07 09:32:16;;;;;;;8.13;2.25;;;4.50;99.90;;;;;;5049161;28;20032;-74
2022/12/07 09:34:41;;;;;;;11.85;1.67;;;4.80;99.90;;;;;;5060183;28;20504;-74
2022/12/07 09:37:07;;;;;;;6.38;1.48;;;4.80;99.90;;;;;;5066787;28;20493;-74
2022/12/07 09:39:33;;;;;;;11.90;1.77;;;4.40;99.90;;;;;;5061733;28;20089;-74
2022/12/07 09:42:02;;;;;;;9.25;1.95;;;4.80;99.90;;;;;;5087501;28;20035;-74
2022/12/07 09:44:28;;;;;;;9.45;1.67;;;4.40;99.90;;;;;;5069944;28;20139;-74
2022/12/07 09:46:56;;;;;;;10.93;1.75;;;;;;;;;;5068618;28;20043;-73
2022/12/07 09:49:24;;;;;;;9.77;2.00;;;;;;;;;;5062667;28;20044;-74
2022/12/07 09:52:00;;;;;;;9.52;1.60;;;;;;;;;;5053894;28;20373;-74
2022/12/07 09:54:25;;;;;;;8.85;1.85;;;4.80;99.90;;;;;;5088639;28;20513;-73
2022/12/07 09:56:52;;;;;;;15.95;3.05;;;;;;;;;;5085155;28;20036;-73
2022/12/07 09:59:18;;;;;;;12.00;1.90;;;;;;;;;;5053051;28;20491;-73
2022/12/07 10:01:49;;;;;;;12.95;1.85;;;4.40;99.90;;;;;;5059729;28;20082;-73
2022/12/07 10:04:19;;;;;;;7.53;1.73;;;4.70;99.90;;;;;;5051988;28;20123;-73
2022/12/07 10:06:45;;;;;;;11.43;2.15;;;4.80;99.90;;;;;;5062238;28;20374;-73
2022/12/07 10:09:12;;;;;;;6.68;1.50;;;4.50;99.90;;;;;;5039435;28;20032;-73
2022/12/07 10:12:09;;;;;;;9.60;1.50;;;4.50;99.90;;;;;;5076127;28;20041;-73
2022/12/07 10:14:39;;;;;;;9.48;1.67;;;4.80;99.90;;;;;;5082965;28;20069;-74
2022/12/07 10:17:36;;;;;;;6.47;1.52;;;5.40;99.90;;;;;;5071289;28;20047;-74
2022/12/07 10:20:20;;;;;;;9.43;1.77;;;;;;;;;;5058016;28;20076;-74
2022/12/07 10:22:55;;;;;;;4.85;0.90;;;;;;;;;;5067614;28;20032;-74
2022/12/07 10:25:22;;;;;;;3.38;0.85;;;5.80;99.90;;;;;;5055111;28;20131;-74
2022/12/07 10:28:07;;;;;;;3.13;0.73;;;5.70;99.90;;;;;;5090666;28;20036;-73
2022/12/07 10:30:51;;;;;;;2.50;0.80;;;6.00;99.90;;;;;;5073608;28;20039;-73
2022/12/07 10:33:31;;;;;;;6.40;1.45;;;;;;;;;;5073160;28;20115;-73
2022/12/07 10:35:58;;;;;;;3.80;0.90;;;5.30;99.90;;;;;;5064620;28;20057;-73
2022/12/07 10:38:27;;;;;;;7.57;1.15;;;5.00;99.90;;;;;;5064458;28;20047;-73
2022/12/07 10:41:09;;;;;;;3.85;0.93;;;5.60;99.90;;;;;;5085183;28;20409;-73
2022/12/07 10:43:34;;;;;;;7.20;1.27;;;5.50;99.90;;;;;;5076001;28;20402;-73
2022/12/07 10:46:36;;;;;;;5.05;0.90;;;;;;;;;;5049803;28;20036;-73
2022/12/07 10:49:26;;;;;;;6.25;1.10;;;5.70;99.90;;;;;;5008370;28;20042;-73
2022/12/07 10:52:07;;;;;;;4.30;1.05;;;5.60;99.90;;;;;;5060909;28;20078;-73
2022/12/07 10:54:59;;;;;;;6.70;1.58;;;5.70;99.90;;;;;;5086477;28;20040;-73
2022/12/07 10:57:41;;;;;;;6.47;1.20;;;5.80;99.90;;;;;;5041203;28;20060;-73
2022/12/07 11:00:16;;;;;;;7.13;1.65;;;5.50;99.90;;;;;;5076477;28;20036;-73
2022/12/07 11:02:52;;;;;;;;;;;5.60;99.90;;;;;;5070006;28;20078;-73
2022/12/07 11:05:28;;;;;;;7.28;1.08;;;;;;;;;;5057344;28;19916;-73
2022/12/07 11:08:11;;;;;;;7.00;1.38;;;5.60;99.90;;;;;;5073058;28;20115;-73
2022/12/07 11:10:54;;;;;;;3.47;1.10;;;;;;;;;;5047290;28;20039;-73
2022/12/07 11:13:34;;;;;;;6.18;1.73;;;5.70;99.90;;;;;;5064272;28;20135;-75
2022/12/07 11:16:18;;;;;;;6.65;1.50;;;6.00;99.90;;;;;;5069105;28;20040;-74
2022/12/07 11:19:00;;;;;;;4.30;1.30;;;5.90;99.90;;;;;;5064764;28;20047;-72
2022/12/07 11:21:47;;;;;;;9.40;1.50;;;6.10;99.90;;;;;;5076660;28;20041;-72
2022/12/07 11:24:41;;;;;;;8.20;1.45;;;6.90;99.90;;;;;;5055407;28;20116;-72
2022/12/07 11:27:35;;;;;;;10.68;1.83;;;6.40;99.90;;;;;;5085302;28;20323;-71
2022/12/07 11:30:20;;;;;;;11.10;1.55;;;6.80;99.90;;;;;;5074484;28;20040;-71
2022/12/07 11:33:01;;;;;;;7.97;1.70;;;6.50;99.90;;;;;;5103689;28;20040;-71
2022/12/07 11:35:45;;;;;;;8.60;1.67;;;;;;;;;;5048941;28;20044;-71
2022/12/07 11:38:22;;;;;;;6.60;1.48;;;6.50;99.90;;;;;;5086871;28;20044;-71
2022/12/07 11:40:51;;;;;;;3.88;0.90;;;7.00;99.90;;;;;;5074692;28;20051;-71
2022/12/07 11:43:27;;;;;;;5.38;1.42;;;7.20;99.90;;;;;;5069009;28;20440;-71
2022/12/07 11:46:12;;;;;;;7.10;1.23;;;7.10;99.90;;;;;;5046517;28;21553;-71
2022/12/07 11:48:47;;;;;;;3.05;1.00;;;6.30;99.90;;;;;;5081551;28;20048;-71
2022/12/07 11:51:13;;;;;;;4.40;1.00;;;7.20;99.90;;;;;;5065066;28;20039;-71
2022/12/07 11:53:56;;;;;;;6.35;1.20;;;7.00;99.90;;;;;;5066560;28;20093;-71
2022/12/07 11:56:26;;;;;;;3.75;1.00;;;7.00;99.90;;;;;;5071269;28;20044;-71
2022/12/07 11:59:01;;;;;;;5.07;1.00;;;6.70;99.90;;;;;;5065901;28;20046;-72
2022/12/07 12:01:58;;;;;;;5.00;1.02;;;6.60;99.90;;;;;;5080965;28;20486;-71
2022/12/07 12:04:27;;;;;;;6.53;1.00;;;6.10;99.90;;;;;;5063026;28;20047;-72
2022/12/07 12:06:53;;;;;;;6.32;1.60;;;;;;;;;;5062916;28;20379;-72
2022/12/07 12:09:32;;;;;;;2.63;0.98;;;6.00;99.90;;;;;;5062683;28;20045;-73
2022/12/07 12:12:12;;;;;;;8.90;1.73;;;;;;;;;;5072615;28;20486;-73
2022/12/07 12:14:38;;;;;;;7.30;1.20;;;6.20;99.90;;;;;;5069323;28;20405;-73
2022/12/07 12:17:25;;;;;;;5.47;1.30;;;6.00;99.90;;;;;;5050126;28;20040;-74
2022/12/07 12:20:06;;;;;;;3.97;1.17;;;6.00;99.90;;;;;;5082343;28;20040;-74
2022/12/07 12:23:07;;;;;;;6.00;1.10;;;5.90;99.90;;;;;;5073025;28;20074;-74
2022/12/07 12:25:48;;;;;;;6.35;1.10;;;6.10;99.90;;;;;;5055874;28;20127;-74
2022/12/07 12:28:20;;;;;;;4.88;1.13;;;5.70;99.90;;;;;;5072059;28;20048;-74
2022/12/07 12:31:09;;;;;;;8.00;1.65;;;5.60;99.90;;;;;;5084783;28;20036;-74
2022/12/07 12:33:36;;;;;;;6.03;1.10;;;6.30;99.90;;;;;;5064943;28;20047;-74
2022/12/07 12:36:27;;;;;;;5.10;1.20;;;6.20;99.90;;;;;;5060924;28;20071;-73
2022/12/07 12:38:58;;;;;;;4.45;1.15;;;6.50;99.90;;;;;;5035671;28;20124;-74
2022/12/07 12:42:05;;;;;;;6.43;1.20;;;6.90;99.90;;;;;;5085967;28;20043;-74
2022/12/07 12:44:32;;;;;;;6.22;1.20;;;6.50;99.90;;;;;;5066809;28;20044;-74
2022/12/07 12:47:24;;;;;;;10.80;1.52;;;8.80;99.90;;;;;;5062863;28;20407;-74
2022/12/07 12:50:15;;;;;;;8.40;1.67;;;9.00;99.90;;;;;;5062137;28;20043;-73
2022/12/07 12:52:41;;;;;;;4.20;1.08;;;7.90;99.90;;;;;;5082777;28;20040;-73
2022/12/07 12:55:07;;;;;;;6.25;1.30;;;8.00;99.90;;;;;;5045873;28;20128;-74
2022/12/07 12:57:32;;;;;;;9.27;1.40;;;7.40;99.90;;;;;;5053609;28;20393;-73
2022/12/07 12:59:59;;;;;;;6.43;1.15;;;7.20;99.90;;;;;;5061387;28;20032;-73
2022/12/07 13:02:37;;;;;;;5.05;1.30;;;6.50;99.90;;;;;;5066058;28;20056;-74
2022/12/07 13:05:09;;;;;;;7.90;1.38;;;6.20;99.90;;;;;;5060351;28;20040;-73
2022/12/07 13:07:47;;;;;;;6.53;1.20;;;6.20;99.90;;;;;;5061198;28;20049;-74
2022/12/07 13:10:40;;;;;;;5.97;1.30;;;6.50;99.90;;;;;;5049392;28;20051;-73
2022/12/07 13:13:14;;;;;;;4.65;1.45;;;6.70;99.90;;;;;;5064783;28;20049;-73
2022/12/07 13:15:47;;;;;;;6.68;1.50;;;5.70;99.90;;;;;;5088931;28;20059;-74
2022/12/07 13:18:22;;;;;;;5.18;1.08;;;6.20;99.90;;;;;;5045173;28;20036;-73
2022/12/07 13:20:51;;;;;;;;;;;6.30;99.90;;;;;;5059320;28;20051;-73
2022/12/07 13:23:31;;;;;;;5.15;1.63;;;6.00;99.90;;;;;;5083097;28;19916;-73
2022/12/07 13:26:01;;;;;;;6.32;1.20;;;;;;;;;;5069365;28;20054;-73
2022/12/07 13:28:35;;;;;;;5.15;1.20;;;6.80;99.90;;;;;;5085523;28;20508;-75
2022/12/07 13:31:13;;;;;;;4.73;1.40;;;6.10;99.90;;;;;;5062062;28;20457;-73
2022/12/07 13:33:38;;;;;;;5.68;1.67;;;6.30;99.90;;;;;;5083034;28;20055;-73
2022/12/07 13:36:39;;;;;;;6.32;1.35;;;6.30;99.90;;;;;;5068041;28;20036;-73
2022/12/07 13:39:33;;;;;;;5.47;0.98;;;6.00;99.90;;;;;;5070747;28;20058;-73
2022/12/07 13:42:01;;;;;;;2.17;0.73;;;;;;;;;;5061029;28;20119;-73
2022/12/07 13:44:28;;;;;;;2.05;0.73;;;;;;;;;;5062482;28;20097;-73